createdAt,value
2019-06-20T00:00:49.635Z,24.00
2019-06-20T00:03:18.848Z,23.90
2019-06-20T00:05:47.700Z,23.80
2019-06-20T00:10:45.486Z,23.70
2019-06-20T00:15:42.910Z,23.60
2019-06-20T00:18:12.144Z,23.60
2019-06-20T00:20:41.037Z,23.60
2019-06-20T00:23:10.144Z,23.70
2019-06-20T00:25:39.072Z,23.70
2019-06-20T00:28:08.531Z,23.80
2019-06-20T00:30:38.080Z,23.80
2019-06-20T00:33:07.223Z,23.90
2019-06-20T00:35:36.147Z,23.80
2019-06-20T00:38:05.035Z,23.50
2019-06-20T00:40:33.907Z,23.10
2019-06-20T00:43:16.349Z,23.10
2019-06-20T00:45:33.406Z,22.90
2019-06-20T00:48:02.243Z,22.70
2019-06-20T00:50:31.532Z,22.50
2019-06-20T00:53:00.624Z,22.30
2019-06-20T00:55:29.524Z,21.90
2019-06-20T00:57:58.804Z,21.70
2019-06-20T01:00:27.643Z,21.70
2019-06-20T01:02:57.113Z,21.40
2019-06-20T01:10:23.103Z,21.30
2019-06-20T01:12:51.989Z,21.20
2019-06-20T01:15:20.906Z,21.00
2019-06-20T01:17:49.777Z,20.70
2019-06-20T01:20:18.756Z,20.20
2019-06-20T01:22:47.700Z,20.10
2019-06-20T01:25:18.075Z,20.20
2019-06-20T01:27:47.372Z,20.10
2019-06-20T01:32:44.657Z,20.30
2019-06-20T01:35:13.884Z,20.60
2019-06-20T01:37:42.916Z,20.60
2019-06-20T01:40:13.327Z,20.60
2019-06-20T01:42:42.547Z,20.00
2019-06-20T01:45:11.375Z,20.00
2019-06-20T01:47:40.179Z,20.00
2019-06-20T01:50:09.485Z,20.10
2019-06-20T01:52:38.251Z,20.10
2019-06-20T01:55:07.266Z,20.10
2019-06-20T01:57:36.100Z,20.00
2019-06-20T02:00:06.036Z,19.90
2019-06-20T02:02:34.908Z,19.80
2019-06-20T02:05:04.214Z,19.60
2019-06-20T02:07:33.226Z,19.70
2019-06-20T02:10:02.204Z,19.80
2019-06-20T02:12:31.056Z,20.00
2019-06-20T02:14:59.832Z,20.10
2019-06-20T02:17:29.075Z,20.10
2019-06-20T02:19:57.919Z,20.00
2019-06-20T02:22:26.691Z,19.30
2019-06-20T02:24:55.548Z,19.40
2019-06-20T02:27:24.366Z,19.50
2019-06-20T02:29:53.231Z,19.40
2019-06-20T02:32:21.996Z,19.20
2019-06-20T02:34:50.793Z,19.40
2019-06-20T02:37:19.622Z,19.40
2019-06-20T02:39:48.805Z,19.50
2019-06-20T02:42:17.872Z,20.40
2019-06-20T02:44:46.784Z,19.00
2019-06-20T02:47:15.974Z,19.20
2019-06-20T02:49:45.011Z,19.10
2019-06-20T02:52:14.022Z,19.10
2019-06-20T02:54:42.954Z,18.80
2019-06-20T02:57:11.846Z,18.70
2019-06-20T02:59:40.622Z,18.80
2019-06-20T03:02:09.779Z,18.70
2019-06-20T03:04:38.557Z,18.90
2019-06-20T03:07:07.415Z,18.80
2019-06-20T03:09:36.405Z,18.60
2019-06-20T03:12:05.377Z,18.50
2019-06-20T03:14:45.130Z,18.30
2019-06-20T03:17:04.987Z,18.30
2019-06-20T03:19:33.860Z,18.40
2019-06-20T03:22:02.858Z,18.40
2019-06-20T03:24:31.891Z,18.20
2019-06-20T03:27:00.988Z,18.00
2019-06-20T03:29:30.011Z,18.20
2019-06-20T03:31:58.825Z,18.20
2019-06-20T03:34:27.873Z,18.30
2019-06-20T03:36:56.663Z,18.40
2019-06-20T03:39:25.550Z,18.40
2019-06-20T03:41:54.488Z,18.30
2019-06-20T03:44:23.289Z,18.30
2019-06-20T03:46:52.163Z,18.30
2019-06-20T03:49:21.405Z,17.90
2019-06-20T03:51:51.751Z,17.90
2019-06-20T03:54:20.767Z,18.10
2019-06-20T03:56:49.897Z,18.10
2019-06-20T03:59:19.151Z,18.20
2019-06-20T04:01:49.226Z,18.20
2019-06-20T04:04:18.307Z,18.10
2019-06-20T04:06:47.497Z,18.10
2019-06-20T04:09:16.636Z,17.80
2019-06-20T04:11:45.582Z,17.90
2019-06-20T04:14:14.743Z,18.00
2019-06-20T04:16:44.172Z,18.00
2019-06-20T04:19:13.101Z,18.10
2019-06-20T04:21:41.974Z,18.30
2019-06-20T04:24:10.775Z,18.40
2019-06-20T04:26:39.891Z,18.40
2019-06-20T04:29:09.203Z,18.30
2019-06-20T04:31:38.065Z,18.30
2019-06-20T04:34:06.935Z,18.20
2019-06-20T04:36:35.975Z,18.10
2019-06-20T04:39:18.691Z,18.00
2019-06-20T04:41:37.109Z,18.10
2019-06-20T04:44:06.063Z,18.00
2019-06-20T04:46:40.704Z,18.00
2019-06-20T04:49:09.888Z,18.10
2019-06-20T04:51:38.785Z,18.20
2019-06-20T04:54:07.620Z,18.20
2019-06-20T04:56:36.476Z,18.10
2019-06-20T04:59:05.417Z,18.10
2019-06-20T05:01:34.473Z,18.10
2019-06-20T05:04:03.853Z,18.20
2019-06-20T05:06:33.194Z,18.20
2019-06-20T05:09:02.352Z,18.40
2019-06-20T05:11:31.228Z,18.40
2019-06-20T05:14:01.423Z,18.30
2019-06-20T05:16:30.466Z,18.30
2019-06-20T05:18:59.566Z,18.40
2019-06-20T05:21:28.377Z,18.40
2019-06-20T05:23:57.558Z,18.30
2019-06-20T05:26:26.420Z,18.30
2019-06-20T05:28:55.457Z,18.40
2019-06-20T05:31:24.427Z,18.40
2019-06-20T05:33:53.686Z,18.30
2019-06-20T05:36:22.626Z,18.30
2019-06-20T05:38:51.717Z,18.40
2019-06-20T05:41:21.017Z,18.70
2019-06-20T05:43:50.112Z,18.80
2019-06-20T05:46:19.154Z,18.80
2019-06-20T05:48:48.123Z,19.10
2019-06-20T05:51:17.127Z,19.10
2019-06-20T05:53:46.879Z,19.40
2019-06-20T05:56:15.773Z,19.50
2019-06-20T05:58:44.547Z,19.50
2019-06-20T06:01:13.423Z,19.50
2019-06-20T06:03:42.680Z,19.40
2019-06-20T06:06:12.524Z,19.40
2019-06-20T06:11:09.897Z,19.60
2019-06-20T06:16:07.874Z,19.70
2019-06-20T06:18:36.678Z,19.50
2019-06-20T06:21:06.060Z,19.50
2019-06-20T06:23:35.472Z,19.60
2019-06-20T06:26:04.467Z,19.60
2019-06-20T06:28:33.675Z,19.70
2019-06-20T06:31:02.840Z,19.80
2019-06-20T06:33:32.243Z,19.90
2019-06-20T06:36:01.137Z,19.90
2019-06-20T06:38:30.138Z,20.10
2019-06-20T06:40:58.998Z,20.20
2019-06-20T06:43:27.832Z,20.20
2019-06-20T06:45:56.741Z,20.20
2019-06-20T06:48:25.626Z,20.40
2019-06-20T06:50:54.411Z,20.40
2019-06-20T06:53:23.324Z,20.50
2019-06-20T06:55:52.189Z,20.50
2019-06-20T06:58:21.040Z,20.80
2019-06-20T07:00:50.708Z,20.80
2019-06-20T07:03:19.806Z,21.10
2019-06-20T07:05:49.074Z,21.10
2019-06-20T07:08:18.073Z,21.40
2019-06-20T07:10:47.322Z,21.20
2019-06-20T07:13:16.259Z,21.20
2019-06-20T07:15:45.235Z,21.30
2019-06-20T07:18:13.997Z,21.30
2019-06-20T07:20:42.771Z,21.40
2019-06-20T07:23:11.562Z,21.60
2019-06-20T07:25:40.511Z,21.70
2019-06-20T07:28:09.275Z,21.70
2019-06-20T07:30:38.496Z,21.60
2019-06-20T07:33:07.532Z,21.40
2019-06-20T07:35:36.692Z,21.40
2019-06-20T07:38:05.799Z,21.40
2019-06-20T07:40:34.710Z,21.50
2019-06-20T07:43:03.636Z,21.70
2019-06-20T07:45:32.836Z,21.70
2019-06-20T07:48:01.743Z,21.70
2019-06-20T07:50:31.074Z,21.80
2019-06-20T07:53:02.320Z,21.90
2019-06-20T07:55:33.080Z,21.60
2019-06-20T07:58:02.078Z,21.50
2019-06-20T08:00:31.467Z,21.50
2019-06-20T08:03:00.330Z,21.50
2019-06-20T08:07:58.771Z,21.70
2019-06-20T08:10:27.992Z,21.70
2019-06-20T08:12:56.988Z,21.70
2019-06-20T08:15:26.330Z,21.70
2019-06-20T08:17:55.317Z,21.80
2019-06-20T08:20:24.461Z,21.90
2019-06-20T08:22:53.522Z,21.90
2019-06-20T08:25:22.496Z,21.90
2019-06-20T08:27:51.920Z,22.00
2019-06-20T08:30:27.031Z,22.10
2019-06-20T08:32:57.741Z,22.20
2019-06-20T08:35:28.346Z,22.40
2019-06-20T08:37:59.258Z,22.20
2019-06-20T08:40:31.140Z,21.90
2019-06-20T08:43:00.667Z,21.80
2019-06-20T08:45:32.489Z,21.90
2019-06-20T08:48:02.634Z,21.90
2019-06-20T08:50:32.148Z,22.00
2019-06-20T08:53:01.733Z,22.00
2019-06-20T08:55:30.854Z,22.20
2019-06-20T08:58:01.470Z,22.20
2019-06-20T09:00:32.408Z,21.80
2019-06-20T09:05:31.256Z,22.00
2019-06-20T09:10:40.330Z,22.00
2019-06-20T09:13:10.701Z,22.00
2019-06-20T09:15:39.854Z,22.10
2019-06-20T09:18:10.642Z,22.10
2019-06-20T09:20:39.852Z,22.20
2019-06-20T09:23:09.166Z,22.30
2019-06-20T09:25:38.480Z,22.40
2019-06-20T09:28:09.047Z,22.50
2019-06-20T09:30:38.211Z,22.40
2019-06-20T09:33:07.433Z,22.40
2019-06-20T09:35:36.464Z,22.40
2019-06-20T09:38:06.435Z,22.40
2019-06-20T09:40:35.375Z,22.70
2019-06-20T09:43:04.327Z,23.00
2019-06-20T09:45:33.532Z,23.10
2019-06-20T09:48:02.757Z,23.20
2019-06-20T09:50:31.923Z,23.30
2019-06-20T09:53:00.876Z,23.10
2019-06-20T09:55:29.792Z,23.10
2019-06-20T09:57:58.921Z,23.20
2019-06-20T10:00:29.529Z,23.20
2019-06-20T10:02:58.351Z,23.30
2019-06-20T10:05:27.254Z,23.30
2019-06-20T10:07:56.741Z,23.40
2019-06-20T10:10:30.556Z,23.60
2019-06-20T10:12:59.488Z,23.70
2019-06-20T10:15:29.613Z,23.80
2019-06-20T10:17:58.551Z,24.00
2019-06-20T10:20:27.986Z,23.90
2019-06-20T10:22:57.723Z,23.80
2019-06-20T10:25:26.828Z,23.80
2019-06-20T10:27:55.839Z,23.70
2019-06-20T10:30:26.580Z,23.60
2019-06-20T10:32:55.502Z,23.60
2019-06-20T10:35:24.318Z,23.70
2019-06-20T10:37:53.328Z,23.90
2019-06-20T10:40:22.875Z,24.10
2019-06-20T10:42:53.187Z,24.00
2019-06-20T10:45:23.860Z,24.00
2019-06-20T10:47:53.704Z,24.20
2019-06-20T10:50:23.702Z,24.20
2019-06-20T10:52:53.175Z,24.30
2019-06-20T10:55:22.303Z,24.10
2019-06-20T10:57:52.768Z,24.20
2019-06-20T11:00:30.677Z,24.10
2019-06-20T11:02:53.505Z,24.10
2019-06-20T11:05:23.096Z,24.30
2019-06-20T11:07:52.382Z,24.40
2019-06-20T11:10:24.593Z,24.70
2019-06-20T11:12:55.976Z,24.70
2019-06-20T11:15:24.303Z,25.00
2019-06-20T11:17:56.316Z,25.00
2019-06-20T11:20:24.559Z,25.20
2019-06-20T11:22:53.940Z,25.10
2019-06-20T11:25:24.361Z,24.80
2019-06-20T11:27:53.568Z,24.60
2019-06-20T11:30:22.862Z,24.30
2019-06-20T11:32:52.082Z,24.60
2019-06-20T11:35:20.995Z,24.90
2019-06-20T11:37:49.875Z,24.90
2019-06-20T11:40:19.655Z,25.10
2019-06-20T11:42:48.652Z,25.50
2019-06-20T11:45:17.754Z,24.70
2019-06-20T11:47:47.327Z,24.70
2019-06-20T11:50:18.427Z,24.90
2019-06-20T11:52:48.107Z,24.70
2019-06-20T11:55:17.691Z,24.80
2019-06-20T11:57:46.703Z,24.80
2019-06-20T12:00:17.477Z,24.90
2019-06-20T12:02:48.106Z,24.90
2019-06-20T12:05:17.668Z,25.20
2019-06-20T12:07:47.926Z,25.30
2019-06-20T12:10:19.559Z,25.40
2019-06-20T12:12:49.161Z,25.40
2019-06-20T12:15:18.971Z,25.00
2019-06-20T12:17:49.341Z,25.40
2019-06-20T12:20:18.802Z,25.40
2019-06-20T12:22:50.532Z,25.70
2019-06-20T12:25:20.455Z,25.60
2019-06-20T12:27:49.911Z,25.80
2019-06-20T12:30:19.956Z,25.80
2019-06-20T12:32:49.395Z,25.90
2019-06-20T12:35:19.502Z,25.90
2019-06-20T12:37:49.772Z,25.50
2019-06-20T12:40:19.535Z,25.50
2019-06-20T12:42:49.317Z,25.30
2019-06-20T12:45:18.897Z,25.10
2019-06-20T12:47:48.207Z,25.10
2019-06-20T12:50:17.379Z,24.90
2019-06-20T12:52:47.610Z,24.90
2019-06-20T12:55:16.832Z,24.90
2019-06-20T12:57:46.291Z,24.70
2019-06-20T13:00:17.471Z,24.50
2019-06-20T13:02:47.460Z,24.50
2019-06-20T13:05:17.513Z,23.40
2019-06-20T13:07:46.862Z,23.40
2019-06-20T13:10:16.088Z,22.90
2019-06-20T13:12:46.425Z,22.60
2019-06-20T13:15:16.463Z,22.50
2019-06-20T13:17:46.891Z,22.50
2019-06-20T13:20:16.159Z,22.50
2019-06-20T13:22:46.466Z,22.50
2019-06-20T13:25:15.511Z,22.70
2019-06-20T13:27:45.669Z,22.90
2019-06-20T13:30:16.716Z,23.40
2019-06-20T13:32:46.994Z,23.40
2019-06-20T13:35:16.778Z,23.60
2019-06-20T13:37:46.258Z,23.70
2019-06-20T13:40:17.565Z,23.80
2019-06-20T13:42:47.798Z,24.00
2019-06-20T13:45:22.689Z,24.10
2019-06-20T13:47:51.772Z,24.10
2019-06-20T13:50:22.471Z,24.20
2019-06-20T13:52:52.181Z,24.30
2019-06-20T13:55:21.338Z,24.20
2019-06-20T13:57:50.427Z,24.50
2019-06-20T14:00:20.602Z,24.50
2019-06-20T14:02:51.527Z,24.70
2019-06-20T14:05:20.479Z,24.70
2019-06-20T14:07:53.217Z,24.80
2019-06-20T14:10:20.531Z,24.80
2019-06-20T14:12:49.414Z,24.70
2019-06-20T14:15:18.934Z,24.70
2019-06-20T14:17:49.430Z,24.70
2019-06-20T14:20:18.937Z,24.70
2019-06-20T14:22:49.421Z,24.60
2019-06-20T14:25:19.466Z,24.60
2019-06-20T14:27:49.010Z,24.50
2019-06-20T14:30:19.186Z,24.50
2019-06-20T14:32:49.372Z,24.50
2019-06-20T14:35:18.992Z,24.70
2019-06-20T14:37:49.508Z,24.70
2019-06-20T14:40:19.206Z,24.80
2019-06-20T14:42:48.178Z,24.90
2019-06-20T14:45:17.136Z,24.90
2019-06-20T14:47:46.234Z,24.90
2019-06-20T14:50:15.408Z,24.80
2019-06-20T14:52:46.102Z,24.80
2019-06-20T14:55:14.991Z,24.80
2019-06-20T14:57:46.198Z,24.80
2019-06-20T15:00:15.392Z,24.80
2019-06-20T15:02:45.791Z,24.80
2019-06-20T15:05:17.412Z,24.50
2019-06-20T15:07:47.449Z,24.50
2019-06-20T15:10:17.226Z,24.50
2019-06-20T15:12:47.932Z,24.40
2019-06-20T15:15:17.401Z,24.40
2019-06-20T15:17:47.499Z,23.60
2019-06-20T15:20:16.962Z,23.10
2019-06-20T15:22:47.429Z,22.00
2019-06-20T15:25:16.583Z,21.60
2019-06-20T15:30:20.697Z,21.10
2019-06-20T15:33:01.157Z,20.80
2019-06-20T15:35:20.551Z,20.80
2019-06-20T15:37:50.235Z,20.80
2019-06-20T15:40:20.914Z,21.00
2019-06-20T15:42:51.558Z,21.10
2019-06-20T15:45:20.900Z,21.10
2019-06-20T15:47:49.776Z,21.30
2019-06-20T15:50:19.103Z,21.60
2019-06-20T15:52:47.907Z,21.90
2019-06-20T15:55:19.600Z,22.30
2019-06-20T15:57:48.472Z,23.00
2019-06-20T16:00:18.235Z,23.00
2019-06-20T16:02:47.084Z,23.60
2019-06-20T16:05:16.536Z,24.00
2019-06-20T16:07:45.656Z,24.10
2019-06-20T16:10:14.553Z,24.40
2019-06-20T16:12:43.468Z,24.50
2019-06-20T16:15:14.292Z,24.80
2019-06-20T16:17:43.162Z,25.20
2019-06-20T16:20:15.087Z,26.10
2019-06-20T16:22:44.148Z,26.20
2019-06-20T16:25:13.547Z,27.00
2019-06-20T16:27:42.485Z,27.00
2019-06-20T16:30:11.556Z,27.50
2019-06-20T16:32:41.177Z,27.90
2019-06-20T16:35:10.608Z,25.50
2019-06-20T16:37:39.624Z,26.90
2019-06-20T16:40:09.309Z,26.60
2019-06-20T16:42:38.316Z,26.90
2019-06-20T16:45:08.511Z,27.30
2019-06-20T16:47:37.705Z,27.50
2019-06-20T16:50:08.543Z,27.80
2019-06-20T16:52:38.144Z,28.10
2019-06-20T16:55:07.935Z,28.20
2019-06-20T16:57:36.877Z,28.40
2019-06-20T17:00:07.512Z,27.70
2019-06-20T17:05:06.416Z,27.50
2019-06-20T17:07:35.719Z,27.30
2019-06-20T17:10:05.342Z,27.30
2019-06-20T17:12:34.383Z,27.10
2019-06-20T17:15:03.579Z,26.90
2019-06-20T17:17:32.552Z,27.00
2019-06-20T17:20:01.645Z,26.50
2019-06-20T17:22:30.998Z,26.30
2019-06-20T17:25:00.183Z,25.90
2019-06-20T17:27:29.032Z,26.10
2019-06-20T17:29:58.251Z,26.60
2019-06-20T17:32:27.140Z,27.30
2019-06-20T17:34:56.063Z,27.50
2019-06-20T17:37:25.025Z,27.30
2019-06-20T17:39:54.135Z,27.00
2019-06-20T17:42:23.658Z,26.90
2019-06-20T17:44:52.731Z,26.60
2019-06-20T17:47:24.094Z,25.60
2019-06-20T17:49:53.410Z,25.60
2019-06-20T17:52:23.059Z,24.90
2019-06-20T17:54:51.989Z,24.60
2019-06-20T17:57:20.977Z,24.30
2019-06-20T18:02:18.611Z,24.00
2019-06-20T18:04:47.811Z,23.50
2019-06-20T18:07:16.763Z,23.20
2019-06-20T18:09:45.646Z,23.10
2019-06-20T18:12:14.639Z,22.80
2019-06-20T18:14:43.599Z,22.80
2019-06-20T18:17:12.579Z,22.50
2019-06-20T18:19:41.862Z,22.10
2019-06-20T18:22:11.152Z,22.10
2019-06-20T18:24:40.142Z,21.80
2019-06-20T18:27:09.014Z,21.80
2019-06-20T18:29:38.140Z,21.70
2019-06-20T18:32:07.740Z,21.60
2019-06-20T18:34:36.760Z,21.50
2019-06-20T18:37:05.699Z,21.40
2019-06-20T18:39:34.663Z,21.40
2019-06-20T18:42:03.632Z,21.30
2019-06-20T18:47:01.017Z,21.10
2019-06-20T18:49:29.919Z,21.00
2019-06-20T18:51:58.823Z,21.00
2019-06-20T18:54:28.598Z,21.00
2019-06-20T18:56:57.856Z,21.00
2019-06-20T18:59:26.985Z,21.00
2019-06-20T19:01:56.194Z,20.90
2019-06-20T19:04:25.064Z,20.90
2019-06-20T19:06:54.000Z,20.90
2019-06-20T19:11:52.162Z,20.80
2019-06-20T19:14:21.119Z,20.70
2019-06-20T19:16:50.654Z,20.70
2019-06-20T19:19:20.910Z,20.70
2019-06-20T19:21:49.827Z,20.70
2019-06-20T19:24:18.615Z,20.60
2019-06-20T19:26:48.472Z,20.60
2019-06-20T19:29:17.377Z,20.50
2019-06-20T19:31:46.499Z,20.50
2019-06-20T19:34:15.419Z,20.40
2019-06-20T19:36:44.454Z,20.40
2019-06-20T19:39:13.386Z,20.40
2019-06-20T19:41:42.268Z,20.30
2019-06-20T19:44:12.441Z,20.20
2019-06-20T19:46:41.955Z,20.20
2019-06-20T19:49:10.919Z,20.20
2019-06-20T19:51:39.873Z,20.20
2019-06-20T19:54:08.839Z,20.20
2019-06-20T19:56:37.759Z,20.20
2019-06-20T19:59:06.719Z,20.20
2019-06-20T20:01:35.525Z,20.20
2019-06-20T20:04:04.464Z,20.20
2019-06-20T20:06:33.634Z,20.20
2019-06-20T20:09:03.834Z,20.20
2019-06-20T20:11:32.632Z,20.20
2019-06-20T20:14:01.443Z,20.10
2019-06-20T20:16:30.234Z,20.10
2019-06-20T20:18:59.887Z,20.10
2019-06-20T20:21:29.608Z,20.10
2019-06-20T20:23:58.908Z,20.10
2019-06-20T20:26:27.800Z,20.10
2019-06-20T20:28:56.568Z,20.10
2019-06-20T20:31:25.776Z,20.10
2019-06-20T20:33:54.642Z,20.00
2019-06-20T20:36:25.277Z,20.10
2019-06-20T20:38:54.151Z,20.10
2019-06-20T20:41:23.151Z,20.00
2019-06-20T20:43:52.295Z,20.00
2019-06-20T20:46:21.728Z,20.00
2019-06-20T20:48:50.630Z,19.90
2019-06-20T20:51:19.615Z,19.90
2019-06-20T20:53:48.773Z,19.80
2019-06-20T20:56:17.582Z,19.80
2019-06-20T20:58:46.850Z,19.80
2019-06-20T21:01:22.073Z,19.80
2019-06-20T21:03:51.006Z,19.90
2019-06-20T21:06:19.892Z,19.80
2019-06-20T21:08:49.180Z,19.80
2019-06-20T21:11:18.263Z,19.80
2019-06-20T21:13:47.038Z,19.80
2019-06-20T21:16:16.267Z,19.80
2019-06-20T21:18:45.250Z,19.90
2019-06-20T21:21:14.346Z,19.80
2019-06-20T21:23:43.210Z,19.80
2019-06-20T21:26:12.564Z,19.80
2019-06-20T21:28:41.752Z,19.80
2019-06-20T21:31:11.543Z,19.70
2019-06-20T21:33:40.665Z,19.50
2019-06-20T21:36:09.566Z,19.40
2019-06-20T21:38:38.455Z,19.40
2019-06-20T21:41:07.299Z,19.30
2019-06-20T21:43:36.237Z,19.10
2019-06-20T21:46:06.881Z,19.10
2019-06-20T21:48:36.246Z,19.10
2019-06-20T21:51:05.214Z,19.10
2019-06-20T21:53:34.004Z,19.10
2019-06-20T21:56:02.831Z,19.10
2019-06-20T21:58:32.126Z,19.00
2019-06-20T22:01:02.410Z,19.00
2019-06-20T22:03:31.645Z,19.00
2019-06-20T22:06:00.585Z,19.00
2019-06-20T22:08:29.792Z,19.00
2019-06-20T22:10:58.661Z,19.00
2019-06-20T22:13:27.584Z,18.90
2019-06-20T22:15:56.797Z,18.90
2019-06-20T22:18:25.587Z,18.80
2019-06-20T22:20:54.606Z,18.80
2019-06-20T22:23:23.875Z,18.80
2019-06-20T22:25:52.744Z,18.80
2019-06-20T22:28:21.586Z,18.80
2019-06-20T22:30:53.432Z,18.80
2019-06-20T22:35:51.474Z,18.80
2019-06-20T22:38:20.430Z,18.80
2019-06-20T22:40:49.683Z,18.70
2019-06-20T22:43:19.987Z,18.80
2019-06-20T22:45:48.890Z,18.70
2019-06-20T22:48:17.783Z,18.70
2019-06-20T22:50:46.769Z,18.70
2019-06-20T22:53:15.651Z,18.70
2019-06-20T22:55:44.581Z,18.70
2019-06-20T22:58:13.361Z,18.70
2019-06-20T23:00:42.154Z,18.70
2019-06-20T23:03:11.443Z,18.60
2019-06-20T23:05:40.324Z,18.60
2019-06-20T23:08:09.330Z,18.60
2019-06-20T23:10:38.265Z,18.60
2019-06-20T23:13:07.203Z,18.60
2019-06-20T23:15:36.113Z,18.50
2019-06-20T23:18:05.598Z,18.50
2019-06-20T23:20:34.536Z,18.60
2019-06-20T23:23:03.444Z,18.60
2019-06-20T23:25:33.366Z,18.60
2019-06-20T23:28:02.348Z,18.60
2019-06-20T23:30:31.564Z,18.60
2019-06-20T23:33:00.407Z,18.60
2019-06-20T23:35:29.267Z,18.60
2019-06-20T23:37:58.113Z,18.60
2019-06-20T23:40:27.062Z,18.60
2019-06-20T23:42:55.948Z,18.70
2019-06-20T23:45:24.920Z,18.70
2019-06-20T23:47:53.804Z,18.70
2019-06-20T23:50:22.723Z,18.60
2019-06-20T23:52:56.724Z,18.60
2019-06-20T23:55:25.850Z,18.50
2019-06-20T23:57:55.103Z,18.50
